sensor_id;sensor_type;location;lat;lon;timestamp;temperature;humidity
6118;DHT22;3089;48.202;11.510;2022-10-17T00:01:00;13.70;99.90
6118;DHT22;3089;48.202;11.510;2022-10-17T00:03:28;13.70;99.90
6118;DHT22;3089;48.202;11.510;2022-10-17T00:05:56;13.70;99.90
6118;DHT22;3089;48.202;11.510;2022-10-17T00:08:24;13.70;99.90
6118;DHT22;3089;48.202;11.510;2022-10-17T00:10:56;13.70;99.90
6118;DHT22;3089;48.202;11.510;2022-10-17T00:13:24;13.70;99.90
6118;DHT22;3089;48.202;11.510;2022-10-17T00:15:56;13.70;99.90
6118;DHT22;3089;48.202;11.510;2022-10-17T00:18:24;13.60;99.90
6118;DHT22;3089;48.202;11.510;2022-10-17T00:20:52;13.60;99.90
6118;DHT22;3089;48.202;11.510;2022-10-17T00:23:20;13.60;99.90
6118;DHT22;3089;48.202;11.510;2022-10-17T00:25:57;13.60;99.90
6118;DHT22;3089;48.202;11.510;2022-10-17T00:28:24;13.60;99.90
6118;DHT22;3089;48.202;11.510;2022-10-17T00:30:58;13.50;99.90
6118;DHT22;3089;48.202;11.510;2022-10-17T00:33:27;13.50;99.90
6118;DHT22;3089;48.202;11.510;2022-10-17T00:36:02;13.50;99.90
6118;DHT22;3089;48.202;11.510;2022-10-17T00:38:30;13.50;99.90
6118;DHT22;3089;48.202;11.510;2022-10-17T00:40:58;13.40;99.90
6118;DHT22;3089;48.202;11.510;2022-10-17T00:43:27;13.40;99.90
6118;DHT22;3089;48.202;11.510;2022-10-17T00:45:56;13.40;99.90
6118;DHT22;3089;48.202;11.510;2022-10-17T00:48:24;13.50;99.90
6118;DHT22;3089;48.202;11.510;2022-10-17T00:50:52;13.40;99.90
6118;DHT22;3089;48.202;11.510;2022-10-17T00:53:20;13.40;99.90
6118;DHT22;3089;48.202;11.510;2022-10-17T00:55:50;13.30;99.90
6118;DHT22;3089;48.202;11.510;2022-10-17T00:58:19;13.30;99.90
6118;DHT22;3089;48.202;11.510;2022-10-17T01:00:48;13.30;99.90
6118;DHT22;3089;48.202;11.510;2022-10-17T01:03:17;13.30;99.90
6118;DHT22;3089;48.202;11.510;2022-10-17T01:05:45;13.20;99.90
6118;DHT22;3089;48.202;11.510;2022-10-17T01:08:13;13.20;99.90
6118;DHT22;3089;48.202;11.510;2022-10-17T01:10:50;13.20;99.90
6118;DHT22;3089;48.202;11.510;2022-10-17T01:13:25;13.20;99.90
6118;DHT22;3089;48.202;11.510;2022-10-17T01:16:00;13.20;99.90
6118;DHT22;3089;48.202;11.510;2022-10-17T01:18:43;13.20;99.90
6118;DHT22;3089;48.202;11.510;2022-10-17T01:21:26;13.20;99.90
6118;DHT22;3089;48.202;11.510;2022-10-17T01:24:32;13.20;99.90
6118;DHT22;3089;48.202;11.510;2022-10-17T01:27:28;13.20;99.90
6118;DHT22;3089;48.202;11.510;2022-10-17T01:30:15;13.10;99.90
6118;DHT22;3089;48.202;11.510;2022-10-17T01:32:49;13.10;99.90
6118;DHT22;3089;48.202;11.510;2022-10-17T01:35:22;13.10;99.90
6118;DHT22;3089;48.202;11.510;2022-10-17T01:37:55;13.10;99.90
6118;DHT22;3089;48.202;11.510;2022-10-17T01:40:29;13.10;99.90
6118;DHT22;3089;48.202;11.510;2022-10-17T01:43:04;13.10;99.90
6118;DHT22;3089;48.202;11.510;2022-10-17T01:45:39;13.10;99.90
6118;DHT22;3089;48.202;11.510;2022-10-17T01:48:13;13.10;99.90
6118;DHT22;3089;48.202;11.510;2022-10-17T01:50:45;13.00;99.90
6118;DHT22;3089;48.202;11.510;2022-10-17T01:53:18;13.00;99.90
6118;DHT22;3089;48.202;11.510;2022-10-17T01:55:49;12.90;99.90
6118;DHT22;3089;48.202;11.510;2022-10-17T01:58:22;12.80;99.90
6118;DHT22;3089;48.202;11.510;2022-10-17T02:00:52;12.80;99.90
6118;DHT22;3089;48.202;11.510;2022-10-17T02:03:23;12.80;99.90
6118;DHT22;3089;48.202;11.510;2022-10-17T02:05:54;12.80;99.90
6118;DHT22;3089;48.202;11.510;2022-10-17T02:08:26;12.90;99.90
6118;DHT22;3089;48.202;11.510;2022-10-17T02:10:57;12.80;99.90
6118;DHT22;3089;48.202;11.510;2022-10-17T02:13:36;12.80;99.90
6118;DHT22;3089;48.202;11.510;2022-10-17T02:16:13;12.80;99.90
6118;DHT22;3089;48.202;11.510;2022-10-17T02:18:57;12.80;99.90
6118;DHT22;3089;48.202;11.510;2022-10-17T02:21:33;12.70;99.90
6118;DHT22;3089;48.202;11.510;2022-10-17T02:24:09;12.60;99.90
6118;DHT22;3089;48.202;11.510;2022-10-17T02:26:46;12.60;99.90
6118;DHT22;3089;48.202;11.510;2022-10-17T02:29:18;12.60;99.90
6118;DHT22;3089;48.202;11.510;2022-10-17T02:31:50;12.60;99.90
6118;DHT22;3089;48.202;11.510;2022-10-17T02:34:25;12.70;99.90
6118;DHT22;3089;48.202;11.510;2022-10-17T02:36:56;12.60;99.90
6118;DHT22;3089;48.202;11.510;2022-10-17T02:39:26;12.60;99.90
6118;DHT22;3089;48.202;11.510;2022-10-17T02:41:57;12.50;99.90
6118;DHT22;3089;48.202;11.510;2022-10-17T02:44:28;12.50;99.90
6118;DHT22;3089;48.202;11.510;2022-10-17T02:47:02;12.50;99.90
6118;DHT22;3089;48.202;11.510;2022-10-17T02:49:35;12.50;99.90
6118;DHT22;3089;48.202;11.510;2022-10-17T02:52:09;12.40;99.90
6118;DHT22;3089;48.202;11.510;2022-10-17T02:54:40;12.40;99.90
6118;DHT22;3089;48.202;11.510;2022-10-17T02:57:13;12.50;99.90
6118;DHT22;3089;48.202;11.510;2022-10-17T02:59:44;12.40;99.90
6118;DHT22;3089;48.202;11.510;2022-10-17T03:02:12;12.40;99.90
6118;DHT22;3089;48.202;11.510;2022-10-17T03:04:43;12.40;99.90
6118;DHT22;3089;48.202;11.510;2022-10-17T03:07:12;12.40;99.90
6118;DHT22;3089;48.202;11.510;2022-10-17T03:09:39;12.30;99.90
6118;DHT22;3089;48.202;11.510;2022-10-17T03:12:07;12.30;99.90
6118;DHT22;3089;48.202;11.510;2022-10-17T03:14:35;12.30;99.90
6118;DHT22;3089;48.202;11.510;2022-10-17T03:17:03;12.30;99.90
6118;DHT22;3089;48.202;11.510;2022-10-17T03:19:31;12.30;99.90
6118;DHT22;3089;48.202;11.510;2022-10-17T03:22:00;12.20;99.90
6118;DHT22;3089;48.202;11.510;2022-10-17T03:24:28;12.20;99.90
6118;DHT22;3089;48.202;11.510;2022-10-17T03:26:56;12.20;99.90
6118;DHT22;3089;48.202;11.510;2022-10-17T03:29:27;12.20;99.90
6118;DHT22;3089;48.202;11.510;2022-10-17T03:31:56;12.20;99.90
6118;DHT22;3089;48.202;11.510;2022-10-17T03:34:24;12.20;99.90
6118;DHT22;3089;48.202;11.510;2022-10-17T03:36:52;12.20;99.90
6118;DHT22;3089;48.202;11.510;2022-10-17T03:39:21;12.20;99.90
6118;DHT22;3089;48.202;11.510;2022-10-17T03:41:49;12.20;99.90
6118;DHT22;3089;48.202;11.510;2022-10-17T03:44:17;12.20;99.90
6118;DHT22;3089;48.202;11.510;2022-10-17T03:46:44;12.20;99.90
6118;DHT22;3089;48.202;11.510;2022-10-17T03:49:12;12.20;99.90
6118;DHT22;3089;48.202;11.510;2022-10-17T03:51:40;12.20;99.90
6118;DHT22;3089;48.202;11.510;2022-10-17T03:54:08;12.10;99.90
6118;DHT22;3089;48.202;11.510;2022-10-17T03:56:37;12.10;99.90
6118;DHT22;3089;48.202;11.510;2022-10-17T03:59:05;12.10;99.90
6118;DHT22;3089;48.202;11.510;2022-10-17T04:01:32;12.00;99.90
6118;DHT22;3089;48.202;11.510;2022-10-17T04:04:00;12.00;99.90
6118;DHT22;3089;48.202;11.510;2022-10-17T04:06:28;12.10;99.90
6118;DHT22;3089;48.202;11.510;2022-10-17T04:08:56;12.10;99.90
6118;DHT22;3089;48.202;11.510;2022-10-17T04:11:24;12.10;99.90
6118;DHT22;3089;48.202;11.510;2022-10-17T04:13:54;12.00;99.90
6118;DHT22;3089;48.202;11.510;2022-10-17T04:16:23;12.00;99.90
6118;DHT22;3089;48.202;11.510;2022-10-17T04:18:52;11.90;99.90
6118;DHT22;3089;48.202;11.510;2022-10-17T04:21:21;11.90;99.90
6118;DHT22;3089;48.202;11.510;2022-10-17T04:23:52;11.80;99.90
6118;DHT22;3089;48.202;11.510;2022-10-17T04:26:21;11.80;99.90
6118;DHT22;3089;48.202;11.510;2022-10-17T04:28:49;11.80;99.90
6118;DHT22;3089;48.202;11.510;2022-10-17T04:31:18;11.70;99.90
6118;DHT22;3089;48.202;11.510;2022-10-17T04:33:47;11.80;99.90
6118;DHT22;3089;48.202;11.510;2022-10-17T04:36:16;11.80;99.90
6118;DHT22;3089;48.202;11.510;2022-10-17T04:38:45;11.70;99.90
6118;DHT22;3089;48.202;11.510;2022-10-17T04:41:14;11.70;99.90
6118;DHT22;3089;48.202;11.510;2022-10-17T04:43:42;11.70;99.90
6118;DHT22;3089;48.202;11.510;2022-10-17T04:46:18;11.70;99.90
6118;DHT22;3089;48.202;11.510;2022-10-17T04:48:45;11.60;99.90
6118;DHT22;3089;48.202;11.510;2022-10-17T04:51:14;11.60;99.90
6118;DHT22;3089;48.202;11.510;2022-10-17T04:53:45;11.60;99.90
6118;DHT22;3089;48.202;11.510;2022-10-17T04:56:15;11.60;99.90
6118;DHT22;3089;48.202;11.510;2022-10-17T04:58:44;11.60;99.90
6118;DHT22;3089;48.202;11.510;2022-10-17T05:01:14;11.50;99.90
6118;DHT22;3089;48.202;11.510;2022-10-17T05:03:44;11.50;99.90
6118;DHT22;3089;48.202;11.510;2022-10-17T05:06:13;11.50;99.90
6118;DHT22;3089;48.202;11.510;2022-10-17T05:08:42;11.50;99.90
6118;DHT22;3089;48.202;11.510;2022-10-17T05:11:16;11.60;99.90
6118;DHT22;3089;48.202;11.510;2022-10-17T05:13:44;11.50;99.90
6118;DHT22;3089;48.202;11.510;2022-10-17T05:16:11;11.40;99.90
6118;DHT22;3089;48.202;11.510;2022-10-17T05:18:39;11.40;99.90
6118;DHT22;3089;48.202;11.510;2022-10-17T05:21:08;11.40;99.90
6118;DHT22;3089;48.202;11.510;2022-10-17T05:23:36;11.40;99.90
6118;DHT22;3089;48.202;11.510;2022-10-17T05:26:04;11.40;99.90
6118;DHT22;3089;48.202;11.510;2022-10-17T05:28:33;11.40;99.90
6118;DHT22;3089;48.202;11.510;2022-10-17T05:31:02;11.30;99.90
6118;DHT22;3089;48.202;11.510;2022-10-17T05:33:30;11.30;99.90
6118;DHT22;3089;48.202;11.510;2022-10-17T05:35:58;11.30;99.90
6118;DHT22;3089;48.202;11.510;2022-10-17T05:38:28;11.30;99.90
6118;DHT22;3089;48.202;11.510;2022-10-17T05:40:56;11.30;99.90
6118;DHT22;3089;48.202;11.510;2022-10-17T05:43:25;11.30;99.90
6118;DHT22;3089;48.202;11.510;2022-10-17T05:45:53;11.30;99.90
6118;DHT22;3089;48.202;11.510;2022-10-17T05:48:22;11.30;99.90
6118;DHT22;3089;48.202;11.510;2022-10-17T05:50:57;11.30;99.90
6118;DHT22;3089;48.202;11.510;2022-10-17T05:53:25;11.30;99.90
6118;DHT22;3089;48.202;11.510;2022-10-17T05:55:59;11.30;99.90
6118;DHT22;3089;48.202;11.510;2022-10-17T05:58:27;11.30;99.90
6118;DHT22;3089;48.202;11.510;2022-10-17T06:01:15;11.30;99.90
6118;DHT22;3089;48.202;11.510;2022-10-17T06:03:43;11.20;99.90
6118;DHT22;3089;48.202;11.510;2022-10-17T06:06:13;11.20;99.90
6118;DHT22;3089;48.202;11.510;2022-10-17T06:08:41;11.20;99.90
6118;DHT22;3089;48.202;11.510;2022-10-17T06:11:11;11.20;99.90
6118;DHT22;3089;48.202;11.510;2022-10-17T06:13:39;11.20;99.90
6118;DHT22;3089;48.202;11.510;2022-10-17T06:16:07;11.20;99.90
6118;DHT22;3089;48.202;11.510;2022-10-17T06:18:35;11.20;99.90
6118;DHT22;3089;48.202;11.510;2022-10-17T06:21:04;11.10;99.90
6118;DHT22;3089;48.202;11.510;2022-10-17T06:23:33;11.10;99.90
6118;DHT22;3089;48.202;11.510;2022-10-17T06:26:02;11.00;99.90
6118;DHT22;3089;48.202;11.510;2022-10-17T06:28:32;11.10;99.90
6118;DHT22;3089;48.202;11.510;2022-10-17T06:31:04;11.10;99.90
6118;DHT22;3089;48.202;11.510;2022-10-17T06:33:31;11.10;99.90
6118;DHT22;3089;48.202;11.510;2022-10-17T06:35:59;11.10;99.90
6118;DHT22;3089;48.202;11.510;2022-10-17T06:38:27;11.20;99.90
6118;DHT22;3089;48.202;11.510;2022-10-17T06:41:02;11.20;99.90
6118;DHT22;3089;48.202;11.510;2022-10-17T06:43:31;11.30;99.90
6118;DHT22;3089;48.202;11.510;2022-10-17T06:45:59;11.70;99.90
6118;DHT22;3089;48.202;11.510;2022-10-17T06:48:27;12.30;99.90
6118;DHT22;3089;48.202;11.510;2022-10-17T06:50:57;12.30;99.90
6118;DHT22;3089;48.202;11.510;2022-10-17T06:53:26;12.40;99.90
6118;DHT22;3089;48.202;11.510;2022-10-17T06:55:55;12.00;99.90
6118;DHT22;3089;48.202;11.510;2022-10-17T06:58:27;12.20;99.90
6118;DHT22;3089;48.202;11.510;2022-10-17T07:00:59;12.40;99.90
6118;DHT22;3089;48.202;11.510;2022-10-17T07:03:27;11.80;99.90
6118;DHT22;3089;48.202;11.510;2022-10-17T07:05:56;12.00;99.90
6118;DHT22;3089;48.202;11.510;2022-10-17T07:08:24;12.30;99.90
6118;DHT22;3089;48.202;11.510;2022-10-17T07:10:52;12.50;99.90
6118;DHT22;3089;48.202;11.510;2022-10-17T07:13:20;11.80;99.90
6118;DHT22;3089;48.202;11.510;2022-10-17T07:15:48;13.00;99.90
6118;DHT22;3089;48.202;11.510;2022-10-17T07:18:17;14.70;99.90
6118;DHT22;3089;48.202;11.510;2022-10-17T07:20:51;15.50;99.90
6118;DHT22;3089;48.202;11.510;2022-10-17T07:23:20;14.60;99.90
6118;DHT22;3089;48.202;11.510;2022-10-17T07:25:47;12.90;99.90
6118;DHT22;3089;48.202;11.510;2022-10-17T07:28:15;12.40;99.90
6118;DHT22;3089;48.202;11.510;2022-10-17T07:30:43;12.00;99.90
6118;DHT22;3089;48.202;11.510;2022-10-17T07:33:19;12.00;99.90
6118;DHT22;3089;48.202;11.510;2022-10-17T07:35:46;13.10;99.90
6118;DHT22;3089;48.202;11.510;2022-10-17T07:38:14;15.20;99.90
6118;DHT22;3089;48.202;11.510;2022-10-17T07:40:42;15.00;99.90
6118;DHT22;3089;48.202;11.510;2022-10-17T07:43:10;13.80;99.90
6118;DHT22;3089;48.202;11.510;2022-10-17T07:45:40;13.00;99.90
6118;DHT22;3089;48.202;11.510;2022-10-17T07:48:07;12.40;99.90
6118;DHT22;3089;48.202;11.510;2022-10-17T07:50:37;12.30;99.90
6118;DHT22;3089;48.202;11.510;2022-10-17T07:53:06;12.30;99.90
6118;DHT22;3089;48.202;11.510;2022-10-17T07:55:35;12.50;99.90
6118;DHT22;3089;48.202;11.510;2022-10-17T07:58:04;12.50;99.90
6118;DHT22;3089;48.202;11.510;2022-10-17T08:00:32;12.50;99.90
6118;DHT22;3089;48.202;11.510;2022-10-17T08:03:00;12.50;99.90
6118;DHT22;3089;48.202;11.510;2022-10-17T08:05:28;12.90;99.90
6118;DHT22;3089;48.202;11.510;2022-10-17T08:07:58;13.00;99.90
6118;DHT22;3089;48.202;11.510;2022-10-17T08:10:26;13.00;99.90
6118;DHT22;3089;48.202;11.510;2022-10-17T08:12:56;13.10;99.90
6118;DHT22;3089;48.202;11.510;2022-10-17T08:15:24;13.10;99.90
6118;DHT22;3089;48.202;11.510;2022-10-17T08:17:58;14.30;99.90
6118;DHT22;3089;48.202;11.510;2022-10-17T08:20:26;14.90;99.90
6118;DHT22;3089;48.202;11.510;2022-10-17T08:22:54;15.20;99.90
6118;DHT22;3089;48.202;11.510;2022-10-17T08:25:23;14.50;99.90
6118;DHT22;3089;48.202;11.510;2022-10-17T08:27:51;13.60;99.90
6118;DHT22;3089;48.202;11.510;2022-10-17T08:30:19;13.70;99.90
6118;DHT22;3089;48.202;11.510;2022-10-17T08:32:46;14.00;99.90
6118;DHT22;3089;48.202;11.510;2022-10-17T08:35:14;14.50;99.90
6118;DHT22;3089;48.202;11.510;2022-10-17T08:37:42;14.30;99.90
6118;DHT22;3089;48.202;11.510;2022-10-17T08:40:16;14.40;99.90
6118;DHT22;3089;48.202;11.510;2022-10-17T08:45:53;14.30;99.90
6118;DHT22;3089;48.202;11.510;2022-10-17T08:48:23;14.60;99.90
6118;DHT22;3089;48.202;11.510;2022-10-17T08:50:54;14.70;99.90
6118;DHT22;3089;48.202;11.510;2022-10-17T08:53:28;14.80;99.90
6118;DHT22;3089;48.202;11.510;2022-10-17T08:56:02;14.90;99.90
6118;DHT22;3089;48.202;11.510;2022-10-17T08:58:36;15.60;99.90
6118;DHT22;3089;48.202;11.510;2022-10-17T09:01:09;16.20;99.90
6118;DHT22;3089;48.202;11.510;2022-10-17T09:04:00;15.70;99.90
6118;DHT22;3089;48.202;11.510;2022-10-17T09:06:33;15.40;99.90
6118;DHT22;3089;48.202;11.510;2022-10-17T09:09:12;15.00;99.90
6118;DHT22;3089;48.202;11.510;2022-10-17T09:11:54;15.20;99.90
6118;DHT22;3089;48.202;11.510;2022-10-17T09:14:40;15.10;99.90
6118;DHT22;3089;48.202;11.510;2022-10-17T09:17:17;15.90;99.90
6118;DHT22;3089;48.202;11.510;2022-10-17T09:19:56;17.70;99.90
6118;DHT22;3089;48.202;11.510;2022-10-17T09:22:28;17.10;99.90
6118;DHT22;3089;48.202;11.510;2022-10-17T09:24:59;17.60;99.90
6118;DHT22;3089;48.202;11.510;2022-10-17T09:27:34;18.70;99.90
6118;DHT22;3089;48.202;11.510;2022-10-17T09:30:24;19.20;99.90
6118;DHT22;3089;48.202;11.510;2022-10-17T09:33:14;17.80;99.90
6118;DHT22;3089;48.202;11.510;2022-10-17T09:36:02;17.20;99.90
6118;DHT22;3089;48.202;11.510;2022-10-17T09:38:37;17.80;99.90
6118;DHT22;3089;48.202;11.510;2022-10-17T09:41:10;18.60;99.90
6118;DHT22;3089;48.202;11.510;2022-10-17T09:44:13;18.20;99.90
6118;DHT22;3089;48.202;11.510;2022-10-17T09:46:50;19.10;99.90
6118;DHT22;3089;48.202;11.510;2022-10-17T09:49:25;18.10;99.90
6118;DHT22;3089;48.202;11.510;2022-10-17T09:51:55;18.80;99.90
6118;DHT22;3089;48.202;11.510;2022-10-17T09:54:26;18.90;99.90
6118;DHT22;3089;48.202;11.510;2022-10-17T09:56:57;20.30;99.90
6118;DHT22;3089;48.202;11.510;2022-10-17T09:59:31;20.20;99.90
6118;DHT22;3089;48.202;11.510;2022-10-17T10:02:16;20.00;99.90
6118;DHT22;3089;48.202;11.510;2022-10-17T10:05:04;19.50;99.90
6118;DHT22;3089;48.202;11.510;2022-10-17T10:07:35;18.40;99.90
6118;DHT22;3089;48.202;11.510;2022-10-17T10:10:06;18.50;99.90
6118;DHT22;3089;48.202;11.510;2022-10-17T10:12:37;18.10;99.90
6118;DHT22;3089;48.202;11.510;2022-10-17T10:15:31;17.80;99.90
6118;DHT22;3089;48.202;11.510;2022-10-17T10:18:01;18.00;99.90
6118;DHT22;3089;48.202;11.510;2022-10-17T10:20:34;18.30;99.90
6118;DHT22;3089;48.202;11.510;2022-10-17T10:23:16;18.60;99.90
6118;DHT22;3089;48.202;11.510;2022-10-17T10:25:55;18.10;99.90
6118;DHT22;3089;48.202;11.510;2022-10-17T10:28:27;17.60;99.90
6118;DHT22;3089;48.202;11.510;2022-10-17T10:30:57;17.70;99.90
6118;DHT22;3089;48.202;11.510;2022-10-17T10:33:29;17.80;99.90
6118;DHT22;3089;48.202;11.510;2022-10-17T10:35:59;17.80;99.90
6118;DHT22;3089;48.202;11.510;2022-10-17T10:38:29;17.80;99.90
6118;DHT22;3089;48.202;11.510;2022-10-17T10:41:02;18.20;99.90
6118;DHT22;3089;48.202;11.510;2022-10-17T10:43:34;18.40;99.90
6118;DHT22;3089;48.202;11.510;2022-10-17T10:46:20;18.40;99.90
6118;DHT22;3089;48.202;11.510;2022-10-17T10:48:53;18.40;99.90
6118;DHT22;3089;48.202;11.510;2022-10-17T10:51:26;18.50;99.90
6118;DHT22;3089;48.202;11.510;2022-10-17T10:54:01;18.60;99.90
6118;DHT22;3089;48.202;11.510;2022-10-17T10:56:33;18.50;99.90
6118;DHT22;3089;48.202;11.510;2022-10-17T10:59:08;18.60;99.90
6118;DHT22;3089;48.202;11.510;2022-10-17T11:01:41;18.80;99.90
6118;DHT22;3089;48.202;11.510;2022-10-17T11:04:24;18.90;99.90
6118;DHT22;3089;48.202;11.510;2022-10-17T11:07:00;19.00;99.90
6118;DHT22;3089;48.202;11.510;2022-10-17T11:09:36;18.90;99.90
6118;DHT22;3089;48.202;11.510;2022-10-17T11:12:11;19.00;99.90
6118;DHT22;3089;48.202;11.510;2022-10-17T11:14:44;19.20;99.90
6118;DHT22;3089;48.202;11.510;2022-10-17T11:17:23;18.90;99.90
6118;DHT22;3089;48.202;11.510;2022-10-17T11:20:06;18.80;99.90
6118;DHT22;3089;48.202;11.510;2022-10-17T11:22:40;19.00;99.90
6118;DHT22;3089;48.202;11.510;2022-10-17T11:25:19;19.00;99.90
6118;DHT22;3089;48.202;11.510;2022-10-17T11:27:48;18.80;99.90
6118;DHT22;3089;48.202;11.510;2022-10-17T11:30:16;19.00;99.90
6118;DHT22;3089;48.202;11.510;2022-10-17T11:32:46;18.90;99.90
6118;DHT22;3089;48.202;11.510;2022-10-17T11:35:21;18.90;99.90
6118;DHT22;3089;48.202;11.510;2022-10-17T11:38:00;19.20;99.90
6118;DHT22;3089;48.202;11.510;2022-10-17T11:40:32;19.10;99.90
6118;DHT22;3089;48.202;11.510;2022-10-17T11:43:05;19.20;99.90
6118;DHT22;3089;48.202;11.510;2022-10-17T11:45:38;19.30;99.90
6118;DHT22;3089;48.202;11.510;2022-10-17T11:48:12;19.50;99.90
6118;DHT22;3089;48.202;11.510;2022-10-17T11:50:47;19.90;99.90
6118;DHT22;3089;48.202;11.510;2022-10-17T11:53:45;19.60;99.90
6118;DHT22;3089;48.202;11.510;2022-10-17T11:56:19;19.70;99.90
6118;DHT22;3089;48.202;11.510;2022-10-17T11:58:53;20.00;99.90
6118;DHT22;3089;48.202;11.510;2022-10-17T12:01:30;19.90;99.90
6118;DHT22;3089;48.202;11.510;2022-10-17T12:04:17;20.00;99.90
6118;DHT22;3089;48.202;11.510;2022-10-17T12:06:56;20.30;99.90
6118;DHT22;3089;48.202;11.510;2022-10-17T12:09:40;20.30;99.90
6118;DHT22;3089;48.202;11.510;2022-10-17T12:12:23;20.30;99.90
6118;DHT22;3089;48.202;11.510;2022-10-17T12:14:52;20.40;99.90
6118;DHT22;3089;48.202;11.510;2022-10-17T12:17:28;20.60;99.90
6118;DHT22;3089;48.202;11.510;2022-10-17T12:20:23;20.60;99.90
6118;DHT22;3089;48.202;11.510;2022-10-17T12:22:55;20.60;99.90
6118;DHT22;3089;48.202;11.510;2022-10-17T12:25:26;20.60;99.90
6118;DHT22;3089;48.202;11.510;2022-10-17T12:28:13;20.10;99.90
6118;DHT22;3089;48.202;11.510;2022-10-17T12:30:54;20.40;99.90
6118;DHT22;3089;48.202;11.510;2022-10-17T12:33:31;20.60;99.90
6118;DHT22;3089;48.202;11.510;2022-10-17T12:39:49;21.00;99.90
6118;DHT22;3089;48.202;11.510;2022-10-17T12:42:46;21.00;99.90
6118;DHT22;3089;48.202;11.510;2022-10-17T12:45:45;20.90;99.90
6118;DHT22;3089;48.202;11.510;2022-10-17T12:51:16;21.20;99.90
6118;DHT22;3089;48.202;11.510;2022-10-17T12:54:10;21.10;99.90
6118;DHT22;3089;48.202;11.510;2022-10-17T12:56:41;20.70;99.90
6118;DHT22;3089;48.202;11.510;2022-10-17T12:59:14;21.10;99.90
6118;DHT22;3089;48.202;11.510;2022-10-17T13:01:45;21.10;99.90
6118;DHT22;3089;48.202;11.510;2022-10-17T13:04:14;21.30;99.90
6118;DHT22;3089;48.202;11.510;2022-10-17T13:06:45;21.40;99.90
6118;DHT22;3089;48.202;11.510;2022-10-17T13:09:23;21.00;99.90
6118;DHT22;3089;48.202;11.510;2022-10-17T13:11:54;20.90;99.90
6118;DHT22;3089;48.202;11.510;2022-10-17T13:14:23;20.40;99.90
6118;DHT22;3089;48.202;11.510;2022-10-17T13:16:54;21.20;99.90
6118;DHT22;3089;48.202;11.510;2022-10-17T13:19:24;21.20;99.90
6118;DHT22;3089;48.202;11.510;2022-10-17T13:21:53;21.20;99.90
6118;DHT22;3089;48.202;11.510;2022-10-17T13:24:31;21.10;99.90
6118;DHT22;3089;48.202;11.510;2022-10-17T13:27:01;21.20;99.90
6118;DHT22;3089;48.202;11.510;2022-10-17T13:29:30;20.90;99.90
6118;DHT22;3089;48.202;11.510;2022-10-17T13:32:00;21.30;99.90
6118;DHT22;3089;48.202;11.510;2022-10-17T13:34:31;21.40;99.90
6118;DHT22;3089;48.202;11.510;2022-10-17T13:37:01;21.20;99.90
6118;DHT22;3089;48.202;11.510;2022-10-17T13:39:34;21.20;99.90
6118;DHT22;3089;48.202;11.510;2022-10-17T13:42:24;21.00;99.90
6118;DHT22;3089;48.202;11.510;2022-10-17T13:44:53;20.90;99.90
6118;DHT22;3089;48.202;11.510;2022-10-17T13:47:22;20.90;99.90
6118;DHT22;3089;48.202;11.510;2022-10-17T13:49:51;21.10;99.90
6118;DHT22;3089;48.202;11.510;2022-10-17T13:52:23;21.10;99.90
6118;DHT22;3089;48.202;11.510;2022-10-17T13:54:52;21.10;99.90
6118;DHT22;3089;48.202;11.510;2022-10-17T13:57:24;21.20;99.90
6118;DHT22;3089;48.202;11.510;2022-10-17T13:59:54;21.40;99.90
6118;DHT22;3089;48.202;11.510;2022-10-17T14:02:25;21.20;99.90
6118;DHT22;3089;48.202;11.510;2022-10-17T14:05:00;21.30;99.90
6118;DHT22;3089;48.202;11.510;2022-10-17T14:07:45;21.30;99.90
6118;DHT22;3089;48.202;11.510;2022-10-17T14:10:39;21.30;99.90
6118;DHT22;3089;48.202;11.510;2022-10-17T14:13:18;21.20;99.90
6118;DHT22;3089;48.202;11.510;2022-10-17T14:15:48;21.10;99.90
6118;DHT22;3089;48.202;11.510;2022-10-17T14:18:18;21.30;99.90
6118;DHT22;3089;48.202;11.510;2022-10-17T14:20:48;21.20;99.90
6118;DHT22;3089;48.202;11.510;2022-10-17T14:23:38;21.20;99.90
6118;DHT22;3089;48.202;11.510;2022-10-17T14:26:10;21.20;99.90
6118;DHT22;3089;48.202;11.510;2022-10-17T14:28:41;21.20;99.90
6118;DHT22;3089;48.202;11.510;2022-10-17T14:31:17;21.30;99.90
6118;DHT22;3089;48.202;11.510;2022-10-17T14:33:47;21.20;99.90
6118;DHT22;3089;48.202;11.510;2022-10-17T14:36:17;21.20;99.90
6118;DHT22;3089;48.202;11.510;2022-10-17T14:38:47;21.00;99.90
6118;DHT22;3089;48.202;11.510;2022-10-17T14:41:21;21.10;99.90
6118;DHT22;3089;48.202;11.510;2022-10-17T14:44:18;21.10;99.90
6118;DHT22;3089;48.202;11.510;2022-10-17T14:46:50;20.90;99.90
6118;DHT22;3089;48.202;11.510;2022-10-17T14:49:25;20.90;99.90
6118;DHT22;3089;48.202;11.510;2022-10-17T14:54:51;20.70;99.90
6118;DHT22;3089;48.202;11.510;2022-10-17T14:57:23;20.70;99.90
6118;DHT22;3089;48.202;11.510;2022-10-17T14:59:52;20.70;99.90
6118;DHT22;3089;48.202;11.510;2022-10-17T15:02:22;20.60;99.90
6118;DHT22;3089;48.202;11.510;2022-10-17T15:04:50;20.70;99.90
6118;DHT22;3089;48.202;11.510;2022-10-17T15:07:18;20.70;99.90
6118;DHT22;3089;48.202;11.510;2022-10-17T15:09:48;20.50;99.90
6118;DHT22;3089;48.202;11.510;2022-10-17T15:12:18;20.40;99.90
6118;DHT22;3089;48.202;11.510;2022-10-17T15:14:47;20.40;99.90
6118;DHT22;3089;48.202;11.510;2022-10-17T15:17:19;20.30;99.90
6118;DHT22;3089;48.202;11.510;2022-10-17T15:19:47;20.30;99.90
6118;DHT22;3089;48.202;11.510;2022-10-17T15:22:16;20.10;99.90
6118;DHT22;3089;48.202;11.510;2022-10-17T15:24:44;20.00;99.90
6118;DHT22;3089;48.202;11.510;2022-10-17T15:27:14;19.90;99.90
6118;DHT22;3089;48.202;11.510;2022-10-17T15:29:43;19.80;99.90
6118;DHT22;3089;48.202;11.510;2022-10-17T15:32:11;19.70;99.90
6118;DHT22;3089;48.202;11.510;2022-10-17T15:34:41;19.60;99.90
6118;DHT22;3089;48.202;11.510;2022-10-17T15:37:16;19.40;99.90
6118;DHT22;3089;48.202;11.510;2022-10-17T15:39:48;19.20;99.90
6118;DHT22;3089;48.202;11.510;2022-10-17T15:42:19;19.10;99.90
6118;DHT22;3089;48.202;11.510;2022-10-17T15:44:47;18.80;99.90
6118;DHT22;3089;48.202;11.510;2022-10-17T15:47:21;18.60;99.90
6118;DHT22;3089;48.202;11.510;2022-10-17T15:49:51;18.60;99.90
6118;DHT22;3089;48.202;11.510;2022-10-17T15:52:20;18.40;99.90
6118;DHT22;3089;48.202;11.510;2022-10-17T15:54:48;18.30;99.90
6118;DHT22;3089;48.202;11.510;2022-10-17T15:57:18;18.30;99.90
6118;DHT22;3089;48.202;11.510;2022-10-17T15:59:47;18.20;99.90
6118;DHT22;3089;48.202;11.510;2022-10-17T16:02:17;18.30;99.90
6118;DHT22;3089;48.202;11.510;2022-10-17T16:04:46;18.40;99.90
6118;DHT22;3089;48.202;11.510;2022-10-17T16:07:16;18.50;99.90
6118;DHT22;3089;48.202;11.510;2022-10-17T16:09:44;18.60;99.90
6118;DHT22;3089;48.202;11.510;2022-10-17T16:12:14;18.70;99.90
6118;DHT22;3089;48.202;11.510;2022-10-17T16:14:43;18.70;99.90
6118;DHT22;3089;48.202;11.510;2022-10-17T16:17:13;18.70;99.90
6118;DHT22;3089;48.202;11.510;2022-10-17T16:19:41;18.60;99.90
6118;DHT22;3089;48.202;11.510;2022-10-17T16:22:19;18.60;99.90
6118;DHT22;3089;48.202;11.510;2022-10-17T16:24:47;18.60;99.90
6118;DHT22;3089;48.202;11.510;2022-10-17T16:27:15;18.60;99.90
6118;DHT22;3089;48.202;11.510;2022-10-17T16:29:42;18.50;99.90